createdAt,value
2023-01-26T00:00:10.439Z,2.56
2023-01-26T00:01:10.035Z,2.54
2023-01-26T00:02:10.019Z,2.60
2023-01-26T00:03:10.026Z,2.68
2023-01-26T00:04:10.082Z,2.57
2023-01-26T00:05:10.018Z,2.56
2023-01-26T00:06:10.028Z,2.57
2023-01-26T00:07:10.039Z,2.56
2023-01-26T00:08:10.034Z,2.62
2023-01-26T00:09:10.026Z,2.72
2023-01-26T00:10:10.371Z,2.75
2023-01-26T00:11:10.019Z,2.85
2023-01-26T00:12:10.033Z,2.86
2023-01-26T00:13:10.024Z,2.86
2023-01-26T00:14:10.073Z,2.89
2023-01-26T00:15:10.033Z,2.86
2023-01-26T00:16:10.089Z,2.86
2023-01-26T00:17:10.030Z,2.87
2023-01-26T00:18:10.027Z,2.92
2023-01-26T00:19:10.066Z,2.90
2023-01-26T00:20:10.433Z,2.90
2023-01-26T00:21:10.029Z,2.87
2023-01-26T00:22:10.033Z,2.85
2023-01-26T00:23:10.033Z,2.87
2023-01-26T00:24:10.052Z,2.87
2023-01-26T00:25:10.028Z,2.85
2023-01-26T00:26:10.038Z,2.72
2023-01-26T00:27:10.037Z,2.77
2023-01-26T00:28:10.028Z,2.71
2023-01-26T00:29:10.037Z,2.74
2023-01-26T00:30:10.590Z,2.65
2023-01-26T00:31:10.062Z,2.67
2023-01-26T17:17:02.393Z,3.55
2023-01-26T17:18:02.374Z,3.44
2023-01-26T17:19:02.365Z,3.50
2023-01-26T17:20:17.546Z,3.53
2023-01-26T17:21:02.370Z,3.53
2023-01-26T17:22:02.375Z,3.51
2023-01-26T17:23:02.376Z,3.53
2023-01-26T17:24:02.422Z,3.50
2023-01-26T17:25:02.378Z,3.47
2023-01-26T17:26:02.377Z,3.50
2023-01-26T17:27:02.387Z,3.47
2023-01-26T17:28:02.381Z,3.51
2023-01-26T17:29:02.374Z,3.47
2023-01-26T17:30:02.383Z,3.53
2023-01-26T17:31:02.404Z,3.42
2023-01-26T17:32:02.495Z,3.40
2023-01-26T17:33:02.407Z,3.34
2023-01-26T17:34:02.393Z,3.36
2023-01-26T17:35:02.379Z,3.48
2023-01-26T17:36:02.381Z,3.51
2023-01-26T17:37:02.381Z,3.50
2023-01-26T17:38:02.390Z,3.47
2023-01-26T17:39:02.389Z,3.50
2023-01-26T17:40:02.394Z,3.51
2023-01-26T17:41:02.383Z,3.51
2023-01-26T17:42:02.398Z,3.50
2023-01-26T17:43:02.386Z,3.53
2023-01-26T17:44:02.395Z,3.53
2023-01-26T17:45:02.402Z,3.50
2023-01-26T17:46:02.502Z,3.48
2023-01-26T17:47:02.423Z,3.45
2023-01-26T17:48:02.394Z,3.50
2023-01-26T17:49:02.437Z,3.44
2023-01-26T17:50:02.404Z,3.48
2023-01-26T17:51:02.393Z,3.50
2023-01-26T17:52:02.399Z,3.58
2023-01-26T17:53:02.401Z,3.69
2023-01-26T17:54:02.395Z,3.51
2023-01-26T17:55:02.403Z,3.59
2023-01-26T17:56:02.396Z,3.59
2023-01-26T17:57:02.411Z,3.62
2023-01-26T17:58:02.400Z,3.59
2023-01-26T17:59:02.400Z,3.60
2023-01-26T18:00:02.419Z,3.60
2023-01-26T18:01:02.554Z,3.65
2023-01-26T18:02:02.452Z,3.65
2023-01-26T18:03:02.414Z,3.50
2023-01-26T18:04:02.411Z,3.53
2023-01-26T18:05:02.431Z,3.59
2023-01-26T18:06:02.405Z,3.48
2023-01-26T18:07:02.413Z,3.55
2023-01-26T18:08:02.407Z,3.51
2023-01-26T18:09:02.407Z,3.50
2023-01-26T18:10:02.417Z,3.51
2023-01-26T18:11:02.419Z,3.51
2023-01-26T18:12:02.417Z,3.48
2023-01-26T18:13:02.431Z,3.45
2023-01-26T18:14:02.420Z,3.44
2023-01-26T18:15:02.413Z,3.41
2023-01-26T18:16:02.414Z,3.41
2023-01-26T18:17:02.429Z,3.36
2023-01-26T18:18:02.414Z,3.44
2023-01-26T18:19:02.461Z,3.41
2023-01-26T18:20:02.419Z,3.48
2023-01-26T18:21:02.474Z,3.51
2023-01-26T18:22:02.426Z,3.58
2023-01-26T18:23:02.427Z,3.50
2023-01-26T18:24:02.518Z,3.66
2023-01-26T18:25:02.438Z,3.59
2023-01-26T18:26:02.432Z,3.53
2023-01-26T18:27:02.423Z,3.65
2023-01-26T18:28:02.440Z,3.63
2023-01-26T18:29:02.426Z,3.65
2023-01-26T18:30:02.434Z,3.58
2023-01-26T18:31:02.479Z,3.62
2023-01-26T18:32:02.477Z,3.62
2023-01-26T18:33:02.429Z,3.74
2023-01-26T18:34:02.470Z,3.68
2023-01-26T18:35:02.431Z,3.78
2023-01-26T18:36:02.434Z,3.76
2023-01-26T18:37:02.456Z,3.73
2023-01-26T18:38:02.435Z,3.70
2023-01-26T18:39:02.471Z,3.59
2023-01-26T18:40:02.434Z,3.58
2023-01-26T18:41:02.442Z,3.55
2023-01-26T18:42:02.445Z,3.59
2023-01-26T18:43:02.452Z,3.69
2023-01-26T18:44:02.440Z,3.60
2023-01-26T18:45:02.442Z,3.55
2023-01-26T18:46:02.461Z,3.53
2023-01-26T18:47:02.450Z,3.51
2023-01-26T18:48:02.458Z,3.48
2023-01-26T18:49:02.458Z,3.51
2023-01-26T18:50:02.455Z,3.50
2023-01-26T18:51:02.447Z,3.51
2023-01-26T18:52:02.456Z,3.53
2023-01-26T18:53:02.480Z,3.51
2023-01-26T18:54:02.471Z,3.56
2023-01-26T18:55:02.459Z,3.42
2023-01-26T18:56:02.460Z,3.42
2023-01-26T18:57:02.460Z,3.41
2023-01-26T18:58:02.474Z,3.41
2023-01-26T18:59:02.465Z,3.44
2023-01-26T19:00:02.464Z,3.48
2023-01-26T19:01:02.483Z,3.45
2023-01-26T19:02:02.463Z,3.45
2023-01-26T19:03:02.468Z,3.48
2023-01-26T19:04:02.473Z,3.48
2023-01-26T19:05:02.464Z,3.53
2023-01-26T19:06:02.462Z,3.56
2023-01-26T19:07:02.475Z,3.55
2023-01-26T19:08:02.464Z,3.50
2023-01-26T19:09:02.488Z,3.53
2023-01-26T19:10:02.469Z,3.55
2023-01-26T19:11:02.468Z,3.55
2023-01-26T19:12:02.475Z,3.59
2023-01-26T19:13:02.491Z,3.63
2023-01-26T19:14:02.492Z,3.55
2023-01-26T19:15:02.473Z,3.55
2023-01-26T19:16:02.479Z,3.56
2023-01-26T19:17:02.481Z,3.50
2023-01-26T19:18:02.475Z,3.51
2023-01-26T19:19:02.482Z,3.45
2023-01-26T19:20:02.494Z,3.50
2023-01-26T19:21:02.504Z,3.48
2023-01-26T19:22:02.484Z,3.53
2023-01-26T19:23:02.481Z,3.48
2023-01-26T19:24:02.631Z,3.40
2023-01-26T19:25:02.502Z,3.47
2023-01-26T19:26:02.482Z,3.47
2023-01-26T19:27:02.481Z,3.44
2023-01-26T19:28:02.482Z,3.36
2023-01-26T19:29:02.483Z,3.34
2023-01-26T19:30:02.490Z,3.40
2023-01-26T19:31:02.584Z,3.42
2023-01-26T19:32:02.619Z,3.40
2023-01-26T19:33:02.493Z,3.31
2023-01-26T19:34:02.534Z,3.32
2023-01-26T19:35:02.496Z,3.34
2023-01-26T19:36:02.490Z,3.37
2023-01-26T19:37:02.489Z,3.40
2023-01-26T19:38:02.503Z,3.42
2023-01-26T19:39:02.502Z,3.36
2023-01-26T19:40:02.509Z,3.40
2023-01-26T19:41:02.527Z,3.37
2023-01-26T19:42:02.502Z,3.37
2023-01-26T19:43:02.497Z,3.42
2023-01-26T19:44:02.501Z,3.48
2023-01-26T19:45:02.517Z,3.44
2023-01-26T19:46:02.587Z,3.42
2023-01-26T19:47:02.507Z,3.59
2023-01-26T19:48:02.512Z,3.55
2023-01-26T19:49:02.515Z,3.50
2023-01-26T19:50:02.544Z,3.56
2023-01-26T19:51:02.514Z,3.56
2023-01-26T19:52:02.512Z,3.50
2023-01-26T19:53:02.506Z,3.51
2023-01-26T19:54:02.515Z,3.55
2023-01-26T19:55:02.512Z,3.55
2023-01-26T19:56:02.511Z,3.53
2023-01-26T19:57:02.532Z,3.48
2023-01-26T19:58:02.520Z,3.50
2023-01-26T19:59:02.512Z,3.53
2023-01-26T20:00:02.518Z,3.53
2023-01-26T20:01:02.576Z,3.50
2023-01-26T20:02:02.597Z,3.65
2023-01-26T20:03:02.522Z,3.56
2023-01-26T20:04:02.515Z,3.59
2023-01-26T20:05:02.528Z,3.58
2023-01-26T20:06:02.530Z,3.51
2023-01-26T20:07:02.531Z,3.66
2023-01-26T20:08:02.528Z,3.59
2023-01-26T20:09:02.532Z,3.66
2023-01-26T20:10:02.537Z,3.74
2023-01-26T20:11:02.535Z,3.68
2023-01-26T20:12:02.530Z,3.73
2023-01-26T20:13:02.557Z,3.68
2023-01-26T20:14:02.545Z,3.73
2023-01-26T20:15:02.532Z,3.69
2023-01-26T20:16:02.538Z,3.73
2023-01-26T20:17:02.532Z,3.70
2023-01-26T20:18:02.541Z,3.65
2023-01-26T20:19:02.546Z,3.74
2023-01-26T20:20:02.536Z,3.70
2023-01-26T20:21:02.542Z,3.68
2023-01-26T20:22:02.551Z,3.65
2023-01-26T20:23:02.550Z,3.65
2023-01-26T20:24:06.745Z,3.59
2023-01-26T20:25:02.545Z,3.65
2023-01-26T20:26:02.542Z,3.60
2023-01-26T20:27:02.543Z,3.53
2023-01-26T20:28:02.549Z,3.63
2023-01-26T20:29:02.572Z,3.58
2023-01-26T20:30:02.546Z,3.58
2023-01-26T20:31:02.590Z,3.66
2023-01-26T20:32:02.628Z,3.62
2023-01-26T20:33:02.563Z,3.60
2023-01-26T20:34:02.669Z,3.70
2023-01-26T20:35:02.551Z,3.74
2023-01-26T20:36:02.551Z,3.65
2023-01-26T20:37:02.558Z,3.66
2023-01-26T20:38:02.555Z,3.68
2023-01-26T20:39:02.581Z,3.66
2023-01-26T20:40:02.560Z,3.65
2023-01-26T20:41:02.558Z,3.58
2023-01-26T20:42:02.565Z,3.62
2023-01-26T20:43:02.559Z,3.55
2023-01-26T20:44:02.563Z,3.65
2023-01-26T20:45:02.582Z,3.69
2023-01-26T20:46:02.598Z,3.60
2023-01-26T20:47:02.579Z,3.70
2023-01-26T20:48:02.566Z,3.70
2023-01-26T20:49:02.588Z,3.68
2023-01-26T20:50:02.570Z,3.69
2023-01-26T20:51:02.576Z,3.69
2023-01-26T20:52:02.604Z,3.69
2023-01-26T20:53:02.578Z,3.69
2023-01-26T20:54:02.575Z,3.76
2023-01-26T20:55:02.579Z,3.78
2023-01-26T20:56:02.588Z,3.76
2023-01-26T20:57:02.583Z,3.76
2023-01-26T20:58:02.575Z,3.78
2023-01-26T20:59:02.584Z,3.76
2023-01-26T21:00:02.586Z,3.73
2023-01-26T21:01:02.714Z,3.74
2023-01-26T21:02:02.607Z,3.81
2023-01-26T21:03:02.588Z,3.68
2023-01-26T21:04:02.580Z,3.68
2023-01-26T21:05:02.589Z,3.70
2023-01-26T21:06:02.591Z,3.80
2023-01-26T21:07:02.582Z,3.74
2023-01-26T21:08:02.594Z,3.68
2023-01-26T21:09:02.606Z,3.70
2023-01-26T21:10:02.591Z,3.78
2023-01-26T21:11:02.595Z,3.73
2023-01-26T21:12:02.594Z,3.73
2023-01-26T21:13:02.590Z,3.77
2023-01-26T21:14:02.589Z,3.70
2023-01-26T21:15:02.591Z,3.76
2023-01-26T21:16:02.671Z,3.76
2023-01-26T21:17:02.625Z,3.77
2023-01-26T21:18:02.599Z,3.74
2023-01-26T21:19:02.593Z,3.76
2023-01-26T21:20:02.595Z,3.81
2023-01-26T21:21:02.603Z,3.77
2023-01-26T21:22:02.606Z,3.83
2023-01-26T21:23:02.606Z,3.77
2023-01-26T21:24:02.632Z,3.70
2023-01-26T21:25:02.607Z,3.76
2023-01-26T21:26:02.604Z,3.70
2023-01-26T21:27:02.609Z,3.65
2023-01-26T21:28:02.609Z,3.65
2023-01-26T21:29:02.612Z,3.69
2023-01-26T21:30:02.617Z,3.70
2023-01-26T21:31:02.705Z,3.69
2023-01-26T21:32:02.608Z,3.69
2023-01-26T21:33:02.636Z,3.68
2023-01-26T21:34:02.623Z,3.65
2023-01-26T21:35:02.634Z,3.76
2023-01-26T21:36:02.627Z,3.77
2023-01-26T21:37:02.616Z,3.80
2023-01-26T21:38:02.621Z,3.76
2023-01-26T21:39:02.643Z,3.80
2023-01-26T21:40:02.639Z,3.74
2023-01-26T21:41:02.618Z,3.76
2023-01-26T21:42:02.630Z,3.73
2023-01-26T21:43:02.620Z,3.81
2023-01-26T21:44:02.635Z,3.77
2023-01-26T21:45:02.631Z,3.76
2023-01-26T21:46:02.654Z,3.78
2023-01-26T21:47:02.625Z,3.76
2023-01-26T21:48:02.623Z,3.78
2023-01-26T21:49:02.664Z,3.80
2023-01-26T21:50:02.633Z,3.74
2023-01-26T21:51:02.627Z,3.77
2023-01-26T21:52:02.642Z,3.77
2023-01-26T21:53:02.631Z,3.81
2023-01-26T21:54:02.637Z,3.77
2023-01-26T21:55:02.639Z,3.76
2023-01-26T21:56:02.641Z,3.78
2023-01-26T21:57:02.647Z,3.84
2023-01-26T21:58:02.645Z,3.78
2023-01-26T21:59:02.727Z,3.83
2023-01-26T22:00:02.636Z,3.73
2023-01-26T22:01:02.672Z,3.78
2023-01-26T22:02:02.656Z,3.81
2023-01-26T22:03:02.646Z,3.78
2023-01-26T22:04:02.697Z,3.77
2023-01-26T22:05:02.666Z,3.80
2023-01-26T22:06:02.653Z,3.81
2023-01-26T22:07:02.663Z,3.80
2023-01-26T22:08:02.673Z,3.80
2023-01-26T22:09:02.655Z,3.91
2023-01-26T22:10:02.648Z,3.78
2023-01-26T22:11:02.652Z,3.87
2023-01-26T22:12:02.651Z,3.84
2023-01-26T22:13:02.654Z,3.92
2023-01-26T22:14:02.652Z,3.84
2023-01-26T22:15:02.662Z,3.83
2023-01-26T22:16:04.560Z,3.83
2023-01-26T22:17:02.665Z,3.80
2023-01-26T22:18:02.659Z,3.81
2023-01-26T22:19:02.663Z,3.77
2023-01-26T22:20:02.666Z,3.74
2023-01-26T22:21:02.686Z,3.80
2023-01-26T22:22:02.667Z,3.76
2023-01-26T22:23:02.668Z,3.74
2023-01-26T22:24:02.711Z,3.83
2023-01-26T22:25:02.672Z,3.77
2023-01-26T22:26:02.665Z,3.81
2023-01-26T22:27:02.666Z,3.78
2023-01-26T22:28:02.676Z,3.77
2023-01-26T22:29:02.667Z,3.83
2023-01-26T22:30:02.685Z,3.77
2023-01-26T22:31:03.417Z,3.87
2023-01-26T22:32:02.803Z,3.94
2023-01-26T22:33:02.672Z,3.95
2023-01-26T22:34:02.680Z,3.94
2023-01-26T22:35:02.688Z,3.88
2023-01-26T22:36:02.675Z,3.94
2023-01-26T22:37:02.700Z,3.94
2023-01-26T22:38:02.677Z,3.96
2023-01-26T22:39:02.686Z,3.84
2023-01-26T22:40:02.683Z,3.87
2023-01-26T22:41:02.703Z,3.77
2023-01-26T22:42:02.694Z,3.80
2023-01-26T22:43:02.704Z,3.80
2023-01-26T22:44:02.693Z,3.83
2023-01-26T22:45:02.701Z,3.86
2023-01-26T22:46:02.795Z,3.87
2023-01-26T22:47:02.694Z,3.83
2023-01-26T22:48:02.688Z,3.86
2023-01-26T22:49:02.698Z,3.96
2023-01-26T22:50:02.699Z,3.84
2023-01-26T22:51:02.704Z,3.86
2023-01-26T22:52:02.696Z,3.88
2023-01-26T22:53:02.726Z,3.98
2023-01-26T22:54:02.698Z,3.94
2023-01-26T22:55:02.705Z,3.87
2023-01-26T22:56:02.706Z,3.87
2023-01-26T22:57:02.707Z,3.99
2023-01-26T22:58:02.713Z,3.84
2023-01-26T22:59:02.722Z,3.91
2023-01-26T23:00:02.716Z,3.91
2023-01-26T23:01:02.710Z,3.76
2023-01-26T23:02:02.714Z,3.88
2023-01-26T23:03:02.712Z,3.92
2023-01-26T23:04:02.857Z,3.76
2023-01-26T23:05:02.717Z,3.86
2023-01-26T23:06:02.708Z,3.77
2023-01-26T23:07:02.718Z,3.81
2023-01-26T23:08:02.720Z,3.91
2023-01-26T23:09:02.739Z,3.91
2023-01-26T23:10:02.718Z,3.94
2023-01-26T23:11:02.712Z,3.83
2023-01-26T23:12:02.725Z,3.88
2023-01-26T23:13:02.722Z,3.94
2023-01-26T23:14:02.718Z,3.86
2023-01-26T23:15:02.723Z,3.81
2023-01-26T23:16:02.724Z,3.80
2023-01-26T23:17:02.729Z,3.78
2023-01-26T23:18:02.722Z,3.78
2023-01-26T23:19:02.730Z,3.80
2023-01-26T23:20:02.733Z,3.81
2023-01-26T23:21:02.735Z,3.74
2023-01-26T23:22:02.729Z,3.81
2023-01-26T23:23:02.726Z,3.77
2023-01-26T23:24:02.774Z,3.77
2023-01-26T23:25:02.749Z,3.78
2023-01-26T23:26:02.735Z,3.78
2023-01-26T23:27:02.735Z,3.78
2023-01-26T23:28:02.761Z,3.80
2023-01-26T23:29:02.789Z,3.78
2023-01-26T23:30:03.501Z,3.76
2023-01-26T23:31:02.845Z,3.66
2023-01-26T23:32:02.850Z,3.76
2023-01-26T23:33:02.760Z,3.74
2023-01-26T23:34:02.772Z,3.77
2023-01-26T23:35:02.774Z,3.78
2023-01-26T23:36:02.801Z,3.77
2023-01-26T23:37:02.759Z,3.83
2023-01-26T23:38:02.772Z,3.80
2023-01-26T23:39:02.808Z,3.81
2023-01-26T23:40:02.781Z,3.76
2023-01-26T23:41:02.797Z,3.76
2023-01-26T23:42:02.793Z,3.74
2023-01-26T23:43:15.879Z,3.73
2023-01-26T23:44:02.777Z,3.78
2023-01-26T23:45:02.849Z,3.74
2023-01-26T23:46:02.770Z,3.77
2023-01-26T23:47:02.905Z,3.81
2023-01-26T23:48:02.758Z,3.84
2023-01-26T23:49:02.796Z,3.80
2023-01-26T23:50:02.796Z,3.84
2023-01-26T23:51:02.779Z,3.84
2023-01-26T23:52:02.828Z,3.96
2023-01-26T23:53:02.778Z,3.88
2023-01-26T23:54:02.778Z,3.98
2023-01-26T23:55:02.817Z,3.96
2023-01-26T23:56:02.802Z,3.98
2023-01-26T23:57:02.792Z,3.96
2023-01-26T23:58:02.813Z,3.91
2023-01-26T23:59:02.771Z,3.92
